sensor_id;sensor_type;location;lat;lon;timestamp;pressure;altitude;pressure_sealevel;temperature;humidity
72409;BME280;60402;48.082;11.628;2024-03-02T00:01:43;94316.56;;;4.69;100.00
72409;BME280;60402;48.082;11.628;2024-03-02T00:04:29;94310.09;;;4.72;100.00
72409;BME280;60402;48.082;11.628;2024-03-02T00:07:15;94319.34;;;4.69;100.00
72409;BME280;60402;48.082;11.628;2024-03-02T00:10:00;94296.00;;;4.59;100.00
72409;BME280;60402;48.082;11.628;2024-03-02T00:12:50;94319.72;;;4.71;100.00
72409;BME280;60402;48.082;11.628;2024-03-02T00:15:51;94314.66;;;4.66;100.00
72409;BME280;60402;48.082;11.628;2024-03-02T00:18:38;94314.22;;;4.68;100.00
72409;BME280;60402;48.082;11.628;2024-03-02T00:21:27;94310.34;;;4.61;100.00
72409;BME280;60402;48.082;11.628;2024-03-02T00:24:30;94271.16;;;4.45;100.00
72409;BME280;60402;48.082;11.628;2024-03-02T00:27:17;94280.88;;;4.57;100.00
72409;BME280;60402;48.082;11.628;2024-03-02T00:33:36;94305.81;;;4.68;100.00
72409;BME280;60402;48.082;11.628;2024-03-02T00:36:24;94306.88;;;4.74;100.00
72409;BME280;60402;48.082;11.628;2024-03-02T00:39:12;94305.56;;;4.78;100.00
72409;BME280;60402;48.082;11.628;2024-03-02T00:42:00;94297.22;;;4.75;100.00
72409;BME280;60402;48.082;11.628;2024-03-02T00:44:45;94285.00;;;4.69;100.00
72409;BME280;60402;48.082;11.628;2024-03-02T00:47:38;94279.06;;;4.67;100.00
72409;BME280;60402;48.082;11.628;2024-03-02T00:50:24;94277.66;;;4.58;100.00
72409;BME280;60402;48.082;11.628;2024-03-02T00:53:12;94282.00;;;4.59;100.00
72409;BME280;60402;48.082;11.628;2024-03-02T00:55:59;94288.66;;;4.66;100.00
72409;BME280;60402;48.082;11.628;2024-03-02T00:58:48;94290.31;;;4.63;100.00
72409;BME280;60402;48.082;11.628;2024-03-02T01:01:34;94291.28;;;4.56;100.00
72409;BME280;60402;48.082;11.628;2024-03-02T01:04:19;94289.78;;;4.52;100.00
72409;BME280;60402;48.082;11.628;2024-03-02T01:07:05;94275.81;;;4.52;100.00
72409;BME280;60402;48.082;11.628;2024-03-02T01:09:51;94281.41;;;4.52;100.00
72409;BME280;60402;48.082;11.628;2024-03-02T01:12:36;94280.19;;;4.53;100.00
72409;BME280;60402;48.082;11.628;2024-03-02T01:15:22;94273.50;;;4.47;100.00
72409;BME280;60402;48.082;11.628;2024-03-02T01:18:08;94281.09;;;4.46;100.00
72409;BME280;60402;48.082;11.628;2024-03-02T01:20:54;94276.94;;;4.54;100.00
72409;BME280;60402;48.082;11.628;2024-03-02T01:23:41;94276.16;;;4.54;100.00
72409;BME280;60402;48.082;11.628;2024-03-02T01:26:27;94274.59;;;4.53;100.00
72409;BME280;60402;48.082;11.628;2024-03-02T01:29:12;94265.66;;;4.58;100.00
72409;BME280;60402;48.082;11.628;2024-03-02T01:31:58;94285.69;;;4.73;100.00
72409;BME280;60402;48.082;11.628;2024-03-02T01:34:43;94293.94;;;4.80;100.00
72409;BME280;60402;48.082;11.628;2024-03-02T01:37:29;94293.25;;;4.76;100.00
72409;BME280;60402;48.082;11.628;2024-03-02T01:40:15;94294.63;;;4.84;100.00
72409;BME280;60402;48.082;11.628;2024-03-02T01:43:00;94292.91;;;4.90;100.00
72409;BME280;60402;48.082;11.628;2024-03-02T01:45:47;94294.22;;;4.85;100.00
72409;BME280;60402;48.082;11.628;2024-03-02T01:48:33;94283.97;;;4.95;100.00
72409;BME280;60402;48.082;11.628;2024-03-02T01:51:19;94273.38;;;4.86;100.00
72409;BME280;60402;48.082;11.628;2024-03-02T01:54:05;94287.00;;;4.84;100.00
72409;BME280;60402;48.082;11.628;2024-03-02T01:56:51;94278.72;;;4.81;100.00
72409;BME280;60402;48.082;11.628;2024-03-02T01:59:38;94262.88;;;4.74;100.00
72409;BME280;60402;48.082;11.628;2024-03-02T02:02:23;94258.16;;;4.71;100.00
72409;BME280;60402;48.082;11.628;2024-03-02T02:05:09;94265.25;;;4.76;100.00
72409;BME280;60402;48.082;11.628;2024-03-02T02:07:55;94261.22;;;4.77;100.00
72409;BME280;60402;48.082;11.628;2024-03-02T02:10:43;94258.75;;;4.79;100.00
72409;BME280;60402;48.082;11.628;2024-03-02T02:13:29;94265.13;;;4.79;100.00
72409;BME280;60402;48.082;11.628;2024-03-02T02:16:15;94245.03;;;4.68;100.00
72409;BME280;60402;48.082;11.628;2024-03-02T02:19:00;94239.34;;;4.55;100.00
72409;BME280;60402;48.082;11.628;2024-03-02T02:21:46;94249.31;;;4.56;100.00
72409;BME280;60402;48.082;11.628;2024-03-02T02:24:31;94243.09;;;4.49;100.00
72409;BME280;60402;48.082;11.628;2024-03-02T02:27:17;94237.06;;;4.50;100.00
72409;BME280;60402;48.082;11.628;2024-03-02T02:30:03;94239.53;;;4.48;100.00
72409;BME280;60402;48.082;11.628;2024-03-02T02:32:50;94233.94;;;4.48;100.00
72409;BME280;60402;48.082;11.628;2024-03-02T02:35:35;94237.75;;;4.54;100.00
72409;BME280;60402;48.082;11.628;2024-03-02T02:38:21;94246.16;;;4.54;100.00
72409;BME280;60402;48.082;11.628;2024-03-02T02:41:07;94238.72;;;4.48;100.00
72409;BME280;60402;48.082;11.628;2024-03-02T02:43:52;94242.13;;;4.55;100.00
72409;BME280;60402;48.082;11.628;2024-03-02T02:46:39;94241.28;;;4.58;100.00
72409;BME280;60402;48.082;11.628;2024-03-02T02:49:24;94241.59;;;4.60;100.00
72409;BME280;60402;48.082;11.628;2024-03-02T02:52:10;94230.41;;;4.60;100.00
72409;BME280;60402;48.082;11.628;2024-03-02T02:54:56;94227.72;;;4.57;100.00
72409;BME280;60402;48.082;11.628;2024-03-02T02:57:42;94236.81;;;4.61;100.00
72409;BME280;60402;48.082;11.628;2024-03-02T03:00:29;94237.34;;;4.72;100.00
72409;BME280;60402;48.082;11.628;2024-03-02T03:03:14;94232.44;;;4.76;100.00
72409;BME280;60402;48.082;11.628;2024-03-02T03:06:00;94244.34;;;4.80;100.00
72409;BME280;60402;48.082;11.628;2024-03-02T03:08:46;94248.78;;;5.10;100.00
72409;BME280;60402;48.082;11.628;2024-03-02T03:11:31;94248.69;;;4.98;100.00
72409;BME280;60402;48.082;11.628;2024-03-02T03:14:17;94223.16;;;4.79;100.00
72409;BME280;60402;48.082;11.628;2024-03-02T03:17:03;94252.03;;;5.09;100.00
72409;BME280;60402;48.082;11.628;2024-03-02T03:19:49;94254.91;;;5.05;100.00
72409;BME280;60402;48.082;11.628;2024-03-02T03:22:36;94253.16;;;5.11;100.00
72409;BME280;60402;48.082;11.628;2024-03-02T03:25:21;94264.09;;;5.06;100.00
72409;BME280;60402;48.082;11.628;2024-03-02T03:28:07;94259.53;;;5.12;100.00
72409;BME280;60402;48.082;11.628;2024-03-02T03:30:55;94242.16;;;5.04;100.00
72409;BME280;60402;48.082;11.628;2024-03-02T03:33:40;94254.13;;;5.05;100.00
72409;BME280;60402;48.082;11.628;2024-03-02T03:36:26;94262.63;;;5.01;100.00
72409;BME280;60402;48.082;11.628;2024-03-02T03:39:12;94265.34;;;5.05;100.00
72409;BME280;60402;48.082;11.628;2024-03-02T03:41:57;94262.00;;;4.94;100.00
72409;BME280;60402;48.082;11.628;2024-03-02T03:44:43;94271.00;;;5.01;100.00
72409;BME280;60402;48.082;11.628;2024-03-02T03:47:28;94267.88;;;4.99;100.00
72409;BME280;60402;48.082;11.628;2024-03-02T03:50:14;94275.84;;;5.01;100.00
72409;BME280;60402;48.082;11.628;2024-03-02T03:53:00;94273.91;;;4.98;100.00
72409;BME280;60402;48.082;11.628;2024-03-02T03:55:45;94242.56;;;4.70;100.00
72409;BME280;60402;48.082;11.628;2024-03-02T03:58:32;94261.56;;;4.95;100.00
72409;BME280;60402;48.082;11.628;2024-03-02T04:01:18;94244.44;;;4.77;100.00
72409;BME280;60402;48.082;11.628;2024-03-02T04:04:03;94263.31;;;4.89;100.00
72409;BME280;60402;48.082;11.628;2024-03-02T04:06:49;94280.81;;;4.93;100.00
72409;BME280;60402;48.082;11.628;2024-03-02T04:09:35;94254.91;;;4.89;100.00
72409;BME280;60402;48.082;11.628;2024-03-02T04:12:20;94260.94;;;4.87;100.00
72409;BME280;60402;48.082;11.628;2024-03-02T04:15:07;94273.38;;;4.86;100.00
72409;BME280;60402;48.082;11.628;2024-03-02T04:17:53;94262.00;;;4.77;100.00
72409;BME280;60402;48.082;11.628;2024-03-02T04:20:38;94270.59;;;4.86;100.00
72409;BME280;60402;48.082;11.628;2024-03-02T04:23:24;94271.81;;;4.85;100.00
72409;BME280;60402;48.082;11.628;2024-03-02T04:26:10;94267.34;;;4.88;100.00
72409;BME280;60402;48.082;11.628;2024-03-02T04:28:56;94264.97;;;4.86;100.00
72409;BME280;60402;48.082;11.628;2024-03-02T04:31:41;94267.88;;;4.99;100.00
72409;BME280;60402;48.082;11.628;2024-03-02T04:34:27;94271.72;;;5.05;100.00
72409;BME280;60402;48.082;11.628;2024-03-02T04:37:12;94279.56;;;5.27;100.00
72409;BME280;60402;48.082;11.628;2024-03-02T04:39:59;94287.19;;;5.26;100.00
72409;BME280;60402;48.082;11.628;2024-03-02T04:42:45;94269.78;;;5.02;100.00
72409;BME280;60402;48.082;11.628;2024-03-02T04:45:31;94255.44;;;5.00;100.00
72409;BME280;60402;48.082;11.628;2024-03-02T04:48:16;94295.22;;;5.08;100.00
72409;BME280;60402;48.082;11.628;2024-03-02T04:51:02;94294.91;;;5.06;100.00
72409;BME280;60402;48.082;11.628;2024-03-02T04:53:48;94292.19;;;5.02;100.00
72409;BME280;60402;48.082;11.628;2024-03-02T04:56:34;94295.25;;;4.92;100.00
72409;BME280;60402;48.082;11.628;2024-03-02T04:59:29;94308.78;;;4.93;100.00
72409;BME280;60402;48.082;11.628;2024-03-02T05:02:16;94305.75;;;4.87;100.00
72409;BME280;60402;48.082;11.628;2024-03-02T05:05:02;94302.59;;;4.85;100.00
72409;BME280;60402;48.082;11.628;2024-03-02T05:07:48;94319.91;;;4.80;100.00
72409;BME280;60402;48.082;11.628;2024-03-02T05:10:34;94315.53;;;4.79;100.00
72409;BME280;60402;48.082;11.628;2024-03-02T05:13:22;94313.88;;;4.82;100.00
72409;BME280;60402;48.082;11.628;2024-03-02T05:16:07;94310.28;;;4.81;100.00
72409;BME280;60402;48.082;11.628;2024-03-02T05:18:56;94320.53;;;5.04;100.00
72409;BME280;60402;48.082;11.628;2024-03-02T05:21:42;94313.72;;;5.05;100.00
72409;BME280;60402;48.082;11.628;2024-03-02T05:24:27;94315.81;;;5.01;100.00
72409;BME280;60402;48.082;11.628;2024-03-02T05:27:13;94322.19;;;5.02;100.00
72409;BME280;60402;48.082;11.628;2024-03-02T05:30:00;94317.19;;;4.93;100.00
72409;BME280;60402;48.082;11.628;2024-03-02T05:32:45;94323.88;;;4.99;100.00
72409;BME280;60402;48.082;11.628;2024-03-02T05:35:31;94302.59;;;4.85;100.00
72409;BME280;60402;48.082;11.628;2024-03-02T05:38:18;94313.69;;;4.89;100.00
72409;BME280;60402;48.082;11.628;2024-03-02T05:41:04;94293.25;;;4.76;100.00
72409;BME280;60402;48.082;11.628;2024-03-02T05:43:50;94324.72;;;4.96;100.00
72409;BME280;60402;48.082;11.628;2024-03-02T05:46:35;94302.50;;;4.73;100.00
72409;BME280;60402;48.082;11.628;2024-03-02T05:49:21;94317.72;;;4.88;100.00
72409;BME280;60402;48.082;11.628;2024-03-02T05:52:07;94328.06;;;4.91;100.00
72409;BME280;60402;48.082;11.628;2024-03-02T05:54:53;94316.66;;;4.82;100.00
72409;BME280;60402;48.082;11.628;2024-03-02T05:57:38;94304.84;;;4.58;100.00
72409;BME280;60402;48.082;11.628;2024-03-02T06:00:34;94323.19;;;4.59;100.00
72409;BME280;60402;48.082;11.628;2024-03-02T06:03:20;94302.22;;;4.83;100.00
72409;BME280;60402;48.082;11.628;2024-03-02T06:06:06;94301.47;;;4.99;100.00
72409;BME280;60402;48.082;11.628;2024-03-02T06:08:52;94313.69;;;4.89;100.00
72409;BME280;60402;48.082;11.628;2024-03-02T06:11:39;94316.75;;;4.78;100.00
72409;BME280;60402;48.082;11.628;2024-03-02T06:14:25;94324.84;;;5.09;100.00
72409;BME280;60402;48.082;11.628;2024-03-02T06:17:10;94326.84;;;5.08;100.00
72409;BME280;60402;48.082;11.628;2024-03-02T06:19:56;94308.19;;;4.85;100.00
72409;BME280;60402;48.082;11.628;2024-03-02T06:22:42;94334.28;;;4.99;100.00
72409;BME280;60402;48.082;11.628;2024-03-02T06:25:27;94326.50;;;4.90;100.00
72409;BME280;60402;48.082;11.628;2024-03-02T06:28:13;94343.28;;;5.06;100.00
72409;BME280;60402;48.082;11.628;2024-03-02T06:31:02;94326.84;;;5.08;100.00
72409;BME280;60402;48.082;11.628;2024-03-02T06:33:47;94336.03;;;5.09;100.00
72409;BME280;60402;48.082;11.628;2024-03-02T06:36:34;94328.16;;;5.20;100.00
72409;BME280;60402;48.082;11.628;2024-03-02T06:39:19;94319.94;;;5.13;100.00
72409;BME280;60402;48.082;11.628;2024-03-02T06:42:05;94332.53;;;5.21;100.00
72409;BME280;60402;48.082;11.628;2024-03-02T06:44:50;94281.25;;;4.75;100.00
72409;BME280;60402;48.082;11.628;2024-03-02T06:47:36;94306.78;;;4.94;100.00
72409;BME280;60402;48.082;11.628;2024-03-02T06:50:22;94320.97;;;5.03;100.00
72409;BME280;60402;48.082;11.628;2024-03-02T06:53:07;94322.28;;;4.98;100.00
72409;BME280;60402;48.082;11.628;2024-03-02T06:55:53;94326.50;;;4.90;100.00
72409;BME280;60402;48.082;11.628;2024-03-02T06:58:39;94306.78;;;4.94;100.00
72409;BME280;60402;48.082;11.628;2024-03-02T07:01:24;94319.50;;;5.15;100.00
72409;BME280;60402;48.082;11.628;2024-03-02T07:04:11;94333.47;;;5.47;100.00
72409;BME280;60402;48.082;11.628;2024-03-02T07:06:57;94327.19;;;5.43;100.00
72409;BME280;60402;48.082;11.628;2024-03-02T07:09:42;94326.94;;;5.37;100.00
72409;BME280;60402;48.082;11.628;2024-03-02T07:12:28;94324.28;;;5.47;100.00
72409;BME280;60402;48.082;11.628;2024-03-02T07:15:14;94323.41;;;5.50;100.00
72409;BME280;60402;48.082;11.628;2024-03-02T07:18:18;94322.56;;;5.36;100.00
72409;BME280;60402;48.082;11.628;2024-03-02T07:21:04;94329.78;;;5.50;100.00
72409;BME280;60402;48.082;11.628;2024-03-02T07:23:50;94332.66;;;5.63;100.00
72409;BME280;60402;48.082;11.628;2024-03-02T07:26:35;94331.69;;;5.70;100.00
72409;BME280;60402;48.082;11.628;2024-03-02T07:29:21;94331.56;;;5.89;100.00
72409;BME280;60402;48.082;11.628;2024-03-02T07:32:08;94334.00;;;6.04;100.00
72409;BME280;60402;48.082;11.628;2024-03-02T07:34:53;94314.13;;;5.98;100.00
72409;BME280;60402;48.082;11.628;2024-03-02T07:37:41;94332.97;;;6.39;100.00
72409;BME280;60402;48.082;11.628;2024-03-02T07:40:26;94319.03;;;6.78;100.00
72409;BME280;60402;48.082;11.628;2024-03-02T07:43:12;94329.22;;;7.10;100.00
72409;BME280;60402;48.082;11.628;2024-03-02T07:45:58;94348.22;;;7.91;100.00
72409;BME280;60402;48.082;11.628;2024-03-02T07:48:43;94333.09;;;8.77;100.00
72409;BME280;60402;48.082;11.628;2024-03-02T07:51:29;94338.19;;;9.31;100.00
72409;BME280;60402;48.082;11.628;2024-03-02T07:54:15;94320.81;;;10.56;100.00
72409;BME280;60402;48.082;11.628;2024-03-02T07:57:01;94337.75;;;11.35;95.66
72409;BME280;60402;48.082;11.628;2024-03-02T07:59:46;94349.06;;;11.35;97.30
72409;BME280;60402;48.082;11.628;2024-03-02T08:02:32;94356.69;;;12.34;90.86
72409;BME280;60402;48.082;11.628;2024-03-02T08:05:18;94363.41;;;12.60;85.16
72409;BME280;60402;48.082;11.628;2024-03-02T08:08:05;94364.41;;;12.72;82.83
72409;BME280;60402;48.082;11.628;2024-03-02T08:10:50;94357.50;;;13.02;82.57
72409;BME280;60402;48.082;11.628;2024-03-02T08:13:36;94351.69;;;15.92;69.74
72409;BME280;60402;48.082;11.628;2024-03-02T08:16:22;94356.22;;;17.40;63.21
72409;BME280;60402;48.082;11.628;2024-03-02T08:19:09;94352.22;;;16.93;64.70
72409;BME280;60402;48.082;11.628;2024-03-02T08:21:55;94351.47;;;15.64;68.11
72409;BME280;60402;48.082;11.628;2024-03-02T08:24:41;94346.81;;;15.66;65.98
72409;BME280;60402;48.082;11.628;2024-03-02T08:27:26;94356.91;;;15.99;64.11
72409;BME280;60402;48.082;11.628;2024-03-02T08:30:12;94354.03;;;15.09;66.09
72409;BME280;60402;48.082;11.628;2024-03-02T08:32:58;94356.72;;;14.93;71.31
72409;BME280;60402;48.082;11.628;2024-03-02T08:35:44;94362.03;;;13.39;72.79
72409;BME280;60402;48.082;11.628;2024-03-02T08:38:30;94376.38;;;13.05;77.40
72409;BME280;60402;48.082;11.628;2024-03-02T08:41:16;94376.50;;;13.41;73.42
72409;BME280;60402;48.082;11.628;2024-03-02T08:44:01;94374.13;;;14.39;71.17
72409;BME280;60402;48.082;11.628;2024-03-02T08:46:47;94371.47;;;16.06;67.52
72409;BME280;60402;48.082;11.628;2024-03-02T08:49:33;94359.00;;;17.06;58.14
72409;BME280;60402;48.082;11.628;2024-03-02T08:52:18;94359.13;;;18.13;56.03
72409;BME280;60402;48.082;11.628;2024-03-02T08:55:04;94371.59;;;18.21;55.23
72409;BME280;60402;48.082;11.628;2024-03-02T08:57:50;94370.44;;;16.52;60.23
72409;BME280;60402;48.082;11.628;2024-03-02T09:00:36;94371.47;;;16.06;64.17
72409;BME280;60402;48.082;11.628;2024-03-02T09:03:22;94367.28;;;16.02;64.43
72409;BME280;60402;48.082;11.628;2024-03-02T09:06:07;94372.88;;;18.20;58.17
72409;BME280;60402;48.082;11.628;2024-03-02T09:08:53;94377.31;;;17.76;57.30
72409;BME280;60402;48.082;11.628;2024-03-02T09:11:39;94374.41;;;17.59;58.00
72409;BME280;60402;48.082;11.628;2024-03-02T09:14:24;94367.91;;;16.17;58.45
72409;BME280;60402;48.082;11.628;2024-03-02T09:17:10;94384.28;;;17.53;57.29
72409;BME280;60402;48.082;11.628;2024-03-02T09:19:57;94364.22;;;17.08;57.12
72409;BME280;60402;48.082;11.628;2024-03-02T09:22:42;94362.22;;;17.42;59.50
72409;BME280;60402;48.082;11.628;2024-03-02T09:25:28;94380.38;;;17.45;59.48
72409;BME280;60402;48.082;11.628;2024-03-02T09:28:17;94373.63;;;17.53;56.90
72409;BME280;60402;48.082;11.628;2024-03-02T09:31:02;94377.31;;;17.76;56.35
72409;BME280;60402;48.082;11.628;2024-03-02T09:33:48;94366.16;;;17.95;55.39
72409;BME280;60402;48.082;11.628;2024-03-02T09:36:34;94358.13;;;16.72;58.02
72409;BME280;60402;48.082;11.628;2024-03-02T09:39:20;94357.97;;;16.50;57.28
72409;BME280;60402;48.082;11.628;2024-03-02T09:42:06;94355.75;;;17.86;57.33
72409;BME280;60402;48.082;11.628;2024-03-02T09:44:52;94345.94;;;21.07;48.73
72409;BME280;60402;48.082;11.628;2024-03-02T09:47:38;94355.06;;;22.18;44.07
72409;BME280;60402;48.082;11.628;2024-03-02T09:50:23;94348.47;;;20.91;46.77
72409;BME280;60402;48.082;11.628;2024-03-02T09:53:10;94356.31;;;20.91;48.00
72409;BME280;60402;48.082;11.628;2024-03-02T09:55:57;94351.13;;;19.80;51.08
72409;BME280;60402;48.082;11.628;2024-03-02T09:58:44;94349.53;;;20.15;48.67
72409;BME280;60402;48.082;11.628;2024-03-02T10:01:29;94350.31;;;17.94;53.93
72409;BME280;60402;48.082;11.628;2024-03-02T10:04:15;94342.34;;;15.91;60.09
72409;BME280;60402;48.082;11.628;2024-03-02T10:07:12;94354.69;;;14.52;69.23
72409;BME280;60402;48.082;11.628;2024-03-02T10:09:58;94338.66;;;13.44;74.33
72409;BME280;60402;48.082;11.628;2024-03-02T10:12:44;94343.78;;;13.75;76.01
72409;BME280;60402;48.082;11.628;2024-03-02T10:15:30;94341.09;;;13.86;74.07
72409;BME280;60402;48.082;11.628;2024-03-02T10:18:26;94339.69;;;12.87;77.80
72409;BME280;60402;48.082;11.628;2024-03-02T10:21:15;94325.34;;;13.20;78.88
72409;BME280;60402;48.082;11.628;2024-03-02T10:24:07;94330.03;;;12.94;78.83
72409;BME280;60402;48.082;11.628;2024-03-02T10:26:52;94328.34;;;12.19;84.83
72409;BME280;60402;48.082;11.628;2024-03-02T10:29:39;94320.81;;;11.25;88.47
72409;BME280;60402;48.082;11.628;2024-03-02T10:32:26;94318.72;;;11.68;87.94
72409;BME280;60402;48.082;11.628;2024-03-02T10:35:11;94329.19;;;12.10;86.09
72409;BME280;60402;48.082;11.628;2024-03-02T10:37:58;94328.47;;;12.39;83.76
72409;BME280;60402;48.082;11.628;2024-03-02T10:40:47;94321.59;;;11.92;83.69
72409;BME280;60402;48.082;11.628;2024-03-02T10:43:36;94316.75;;;11.84;83.38
72409;BME280;60402;48.082;11.628;2024-03-02T10:46:22;94308.84;;;11.31;85.69
72409;BME280;60402;48.082;11.628;2024-03-02T10:49:09;94299.63;;;11.54;86.77
72409;BME280;60402;48.082;11.628;2024-03-02T10:51:55;94282.31;;;11.85;84.58
72409;BME280;60402;48.082;11.628;2024-03-02T10:54:40;94288.13;;;11.58;85.82
72409;BME280;60402;48.082;11.628;2024-03-02T10:57:26;94286.72;;;11.53;84.55
72409;BME280;60402;48.082;11.628;2024-03-02T11:00:18;94288.19;;;11.15;87.02
72409;BME280;60402;48.082;11.628;2024-03-02T11:03:11;94284.78;;;11.35;86.73
72409;BME280;60402;48.082;11.628;2024-03-02T11:05:58;94271.47;;;11.26;87.36
72409;BME280;60402;48.082;11.628;2024-03-02T11:08:47;94275.09;;;11.51;85.65
72409;BME280;60402;48.082;11.628;2024-03-02T11:11:37;94270.69;;;11.26;88.60
72409;BME280;60402;48.082;11.628;2024-03-02T11:14:25;94272.25;;;11.27;89.80
72409;BME280;60402;48.082;11.628;2024-03-02T11:17:13;94262.84;;;11.54;87.35
72409;BME280;60402;48.082;11.628;2024-03-02T11:20:03;94253.84;;;11.32;88.26
72409;BME280;60402;48.082;11.628;2024-03-02T11:22:49;94255.28;;;11.51;88.81
72409;BME280;60402;48.082;11.628;2024-03-02T11:25:35;94248.91;;;11.41;87.48
72409;BME280;60402;48.082;11.628;2024-03-02T11:28:35;94232.78;;;11.57;87.06
72409;BME280;60402;48.082;11.628;2024-03-02T11:31:22;94236.94;;;11.46;86.34
72409;BME280;60402;48.082;11.628;2024-03-02T11:34:18;94236.75;;;11.50;85.41
72409;BME280;60402;48.082;11.628;2024-03-02T11:37:15;94222.97;;;11.43;85.98
72409;BME280;60402;48.082;11.628;2024-03-02T11:40:01;94219.91;;;11.80;84.42
72409;BME280;60402;48.082;11.628;2024-03-02T11:42:46;94227.47;;;11.83;82.81
72409;BME280;60402;48.082;11.628;2024-03-02T11:45:32;94219.50;;;11.72;80.97
72409;BME280;60402;48.082;11.628;2024-03-02T11:48:19;94216.84;;;11.92;81.03
72409;BME280;60402;48.082;11.628;2024-03-02T11:51:05;94212.75;;;11.45;82.30
72409;BME280;60402;48.082;11.628;2024-03-02T11:53:51;94205.88;;;11.37;82.92
72409;BME280;60402;48.082;11.628;2024-03-02T11:56:37;94203.31;;;11.48;84.02
72409;BME280;60402;48.082;11.628;2024-03-02T11:59:23;94184.22;;;11.58;83.73
72409;BME280;60402;48.082;11.628;2024-03-02T12:02:18;94182.72;;;11.48;83.06
72409;BME280;60402;48.082;11.628;2024-03-02T12:05:04;94197.88;;;11.84;82.94
72409;BME280;60402;48.082;11.628;2024-03-02T12:07:58;94182.88;;;11.92;82.32
72409;BME280;60402;48.082;11.628;2024-03-02T12:10:58;94166.50;;;11.72;81.64
72409;BME280;60402;48.082;11.628;2024-03-02T12:13:53;94180.06;;;12.07;82.33
72409;BME280;60402;48.082;11.628;2024-03-02T12:16:44;94172.06;;;12.20;81.84
72409;BME280;60402;48.082;11.628;2024-03-02T12:19:31;94158.38;;;12.04;79.48
72409;BME280;60402;48.082;11.628;2024-03-02T12:22:17;94160.91;;;11.87;81.54
72409;BME280;60402;48.082;11.628;2024-03-02T12:25:03;94177.66;;;12.15;80.16
72409;BME280;60402;48.082;11.628;2024-03-02T12:27:52;94156.06;;;12.17;81.35
72409;BME280;60402;48.082;11.628;2024-03-02T12:30:39;94154.06;;;11.94;79.99
72409;BME280;60402;48.082;11.628;2024-03-02T12:33:25;94115.72;;;12.08;80.58
72409;BME280;60402;48.082;11.628;2024-03-02T12:36:13;94149.09;;;12.03;80.27
72409;BME280;60402;48.082;11.628;2024-03-02T12:38:59;94164.34;;;11.91;79.85
72409;BME280;60402;48.082;11.628;2024-03-02T12:41:46;94147.38;;;12.06;79.98
72409;BME280;60402;48.082;11.628;2024-03-02T12:44:32;94155.88;;;12.21;79.13
72409;BME280;60402;48.082;11.628;2024-03-02T12:47:18;94147.47;;;12.12;80.85
72409;BME280;60402;48.082;11.628;2024-03-02T12:50:04;94136.22;;;12.02;81.37
72409;BME280;60402;48.082;11.628;2024-03-02T12:52:54;94126.66;;;12.15;81.96
72409;BME280;60402;48.082;11.628;2024-03-02T12:55:40;94124.31;;;12.13;82.09
72409;BME280;60402;48.082;11.628;2024-03-02T12:58:27;94105.84;;;12.18;79.77
72409;BME280;60402;48.082;11.628;2024-03-02T13:01:15;94128.91;;;11.96;80.24
72409;BME280;60402;48.082;11.628;2024-03-02T13:04:04;94109.28;;;11.92;78.05
72409;BME280;60402;48.082;11.628;2024-03-02T13:06:50;94102.56;;;12.19;78.58
72409;BME280;60402;48.082;11.628;2024-03-02T13:09:37;94104.50;;;12.13;76.67
72409;BME280;60402;48.082;11.628;2024-03-02T13:12:24;94098.53;;;12.11;76.70
72409;BME280;60402;48.082;11.628;2024-03-02T13:15:10;94086.63;;;12.07;77.52
72409;BME280;60402;48.082;11.628;2024-03-02T13:17:58;94088.69;;;11.92;77.49
72409;BME280;60402;48.082;11.628;2024-03-02T13:20:45;94073.41;;;11.74;75.28
72409;BME280;60402;48.082;11.628;2024-03-02T13:23:31;94085.81;;;11.77;75.46
72409;BME280;60402;48.082;11.628;2024-03-02T13:26:17;94089.72;;;11.80;75.58
72409;BME280;60402;48.082;11.628;2024-03-02T13:29:02;94083.41;;;11.85;73.88
72409;BME280;60402;48.082;11.628;2024-03-02T13:31:48;94085.06;;;11.91;72.93
72409;BME280;60402;48.082;11.628;2024-03-02T13:34:34;94082.56;;;11.69;75.67
72409;BME280;60402;48.082;11.628;2024-03-02T13:37:20;94069.94;;;11.94;77.13
72409;BME280;60402;48.082;11.628;2024-03-02T13:40:07;94055.69;;;11.89;77.65
72409;BME280;60402;48.082;11.628;2024-03-02T13:42:58;94064.00;;;11.92;80.45
72409;BME280;60402;48.082;11.628;2024-03-02T13:45:43;94076.00;;;12.02;80.63
72409;BME280;60402;48.082;11.628;2024-03-02T13:48:29;94069.38;;;12.05;79.73
72409;BME280;60402;48.082;11.628;2024-03-02T13:51:16;94064.28;;;12.09;80.01
72409;BME280;60402;48.082;11.628;2024-03-02T13:54:01;94077.84;;;11.90;78.68
72409;BME280;60402;48.082;11.628;2024-03-02T13:56:48;94071.50;;;12.10;79.62
72409;BME280;60402;48.082;11.628;2024-03-02T13:59:34;94071.97;;;12.09;79.47
72409;BME280;60402;48.082;11.628;2024-03-02T14:02:20;94075.09;;;12.25;77.24
72409;BME280;60402;48.082;11.628;2024-03-02T14:05:06;94049.63;;;12.25;75.51
72409;BME280;60402;48.082;11.628;2024-03-02T14:07:56;94047.97;;;12.04;72.58
72409;BME280;60402;48.082;11.628;2024-03-02T14:10:41;94053.25;;;11.96;72.63
72409;BME280;60402;48.082;11.628;2024-03-02T14:13:28;94052.75;;;11.98;73.52
72409;BME280;60402;48.082;11.628;2024-03-02T14:16:14;94048.34;;;11.67;72.67
72409;BME280;60402;48.082;11.628;2024-03-02T14:19:00;94044.34;;;11.74;73.66
72409;BME280;60402;48.082;11.628;2024-03-02T14:21:45;94063.16;;;11.62;73.27
72409;BME280;60402;48.082;11.628;2024-03-02T14:24:32;94044.50;;;11.70;74.68
72409;BME280;60402;48.082;11.628;2024-03-02T14:27:18;94049.25;;;11.88;73.35
72409;BME280;60402;48.082;11.628;2024-03-02T14:30:05;94044.41;;;11.65;73.69
72409;BME280;60402;48.082;11.628;2024-03-02T14:32:51;94049.31;;;11.79;74.14
72409;BME280;60402;48.082;11.628;2024-03-02T14:35:36;94042.59;;;11.76;73.75